sensor_id;sensor_type;location;lat;lon;timestamp;pressure;altitude;pressure_sealevel;temperature
66403;BMP180;53212;52.112;5.144;2023-04-24T00:00:46;99801.40;;;9.60
66403;BMP180;53212;52.112;5.144;2023-04-24T00:03:12;99809.80;;;9.60
66403;BMP180;53212;52.112;5.144;2023-04-24T00:05:38;99811.80;;;9.60
66403;BMP180;53212;52.112;5.144;2023-04-24T00:08:05;99805.80;;;9.60
66403;BMP180;53212;52.112;5.144;2023-04-24T00:10:31;99818.00;;;9.60
66403;BMP180;53212;52.112;5.144;2023-04-24T00:12:57;99813.00;;;9.50
66403;BMP180;53212;52.112;5.144;2023-04-24T00:15:22;99830.20;;;9.50
66403;BMP180;53212;52.112;5.144;2023-04-24T00:17:48;99830.40;;;9.50
66403;BMP180;53212;52.112;5.144;2023-04-24T00:20:13;99836.20;;;9.52
66403;BMP180;53212;52.112;5.144;2023-04-24T00:22:40;99829.60;;;9.50
66403;BMP180;53212;52.112;5.144;2023-04-24T00:25:06;99834.60;;;9.50
66403;BMP180;53212;52.112;5.144;2023-04-24T00:27:31;99835.00;;;9.50
66403;BMP180;53212;52.112;5.144;2023-04-24T00:29:57;99837.80;;;9.50
66403;BMP180;53212;52.112;5.144;2023-04-24T00:32:22;99837.40;;;9.50
66403;BMP180;53212;52.112;5.144;2023-04-24T00:34:47;99835.40;;;9.50
66403;BMP180;53212;52.112;5.144;2023-04-24T00:37:13;99839.60;;;9.42
66403;BMP180;53212;52.112;5.144;2023-04-24T00:39:38;99844.20;;;9.48
66403;BMP180;53212;52.112;5.144;2023-04-24T00:42:04;99847.00;;;9.46
66403;BMP180;53212;52.112;5.144;2023-04-24T00:44:33;99844.40;;;9.48
66403;BMP180;53212;52.112;5.144;2023-04-24T00:47:00;99848.20;;;9.40
66403;BMP180;53212;52.112;5.144;2023-04-24T00:49:26;99847.20;;;9.40
66403;BMP180;53212;52.112;5.144;2023-04-24T00:51:52;99850.60;;;9.46
66403;BMP180;53212;52.112;5.144;2023-04-24T00:54:19;99850.60;;;9.46
66403;BMP180;53212;52.112;5.144;2023-04-24T00:56:45;99848.40;;;9.44
66403;BMP180;53212;52.112;5.144;2023-04-24T00:59:12;99852.20;;;9.50
66403;BMP180;53212;52.112;5.144;2023-04-24T01:01:39;99856.20;;;9.50
66403;BMP180;53212;52.112;5.144;2023-04-24T01:04:08;99854.80;;;9.50
66403;BMP180;53212;52.112;5.144;2023-04-24T01:06:38;99855.00;;;9.60
66403;BMP180;53212;52.112;5.144;2023-04-24T01:09:03;99853.40;;;9.60
66403;BMP180;53212;52.112;5.144;2023-04-24T01:11:29;99859.60;;;9.60
66403;BMP180;53212;52.112;5.144;2023-04-24T01:13:55;99853.20;;;9.60
66403;BMP180;53212;52.112;5.144;2023-04-24T01:16:21;99863.00;;;9.60
66403;BMP180;53212;52.112;5.144;2023-04-24T01:18:47;99857.00;;;9.50
66403;BMP180;53212;52.112;5.144;2023-04-24T01:21:15;99861.20;;;9.50
66403;BMP180;53212;52.112;5.144;2023-04-24T01:23:45;99864.00;;;9.50
66403;BMP180;53212;52.112;5.144;2023-04-24T01:26:14;99863.80;;;9.50
66403;BMP180;53212;52.112;5.144;2023-04-24T01:28:39;99868.80;;;9.56
66403;BMP180;53212;52.112;5.144;2023-04-24T01:31:05;99868.60;;;9.60
66403;BMP180;53212;52.112;5.144;2023-04-24T01:33:31;99863.00;;;9.60
66403;BMP180;53212;52.112;5.144;2023-04-24T01:35:57;99868.20;;;9.60
66403;BMP180;53212;52.112;5.144;2023-04-24T01:38:22;99869.80;;;9.60
66403;BMP180;53212;52.112;5.144;2023-04-24T01:40:49;99867.60;;;9.60
66403;BMP180;53212;52.112;5.144;2023-04-24T01:43:15;99867.60;;;9.60
66403;BMP180;53212;52.112;5.144;2023-04-24T01:45:40;99870.60;;;9.60
66403;BMP180;53212;52.112;5.144;2023-04-24T01:48:06;99870.60;;;9.66
66403;BMP180;53212;52.112;5.144;2023-04-24T01:50:31;99866.40;;;9.60
66403;BMP180;53212;52.112;5.144;2023-04-24T01:52:57;99867.80;;;9.60
66403;BMP180;53212;52.112;5.144;2023-04-24T01:55:23;99863.20;;;9.62
66403;BMP180;53212;52.112;5.144;2023-04-24T01:57:48;99863.40;;;9.60
66403;BMP180;53212;52.112;5.144;2023-04-24T02:00:14;99864.40;;;9.60
66403;BMP180;53212;52.112;5.144;2023-04-24T02:02:40;99862.80;;;9.60
66403;BMP180;53212;52.112;5.144;2023-04-24T02:05:07;99864.60;;;9.60
66403;BMP180;53212;52.112;5.144;2023-04-24T02:07:33;99861.20;;;9.68
66403;BMP180;53212;52.112;5.144;2023-04-24T02:09:58;99864.20;;;9.70
66403;BMP180;53212;52.112;5.144;2023-04-24T02:12:24;99866.40;;;9.70
66403;BMP180;53212;52.112;5.144;2023-04-24T02:14:50;99865.60;;;9.70
66403;BMP180;53212;52.112;5.144;2023-04-24T02:17:15;99865.20;;;9.70
66403;BMP180;53212;52.112;5.144;2023-04-24T02:19:41;99869.20;;;9.70
66403;BMP180;53212;52.112;5.144;2023-04-24T02:22:07;99861.40;;;9.70
66403;BMP180;53212;52.112;5.144;2023-04-24T02:24:32;99866.00;;;9.70
66403;BMP180;53212;52.112;5.144;2023-04-24T02:26:58;99862.60;;;9.78
66403;BMP180;53212;52.112;5.144;2023-04-24T02:29:23;99873.40;;;9.80
66403;BMP180;53212;52.112;5.144;2023-04-24T02:31:49;99871.40;;;9.80
66403;BMP180;53212;52.112;5.144;2023-04-24T02:34:14;99871.60;;;9.70
66403;BMP180;53212;52.112;5.144;2023-04-24T02:36:40;99868.00;;;9.70
66403;BMP180;53212;52.112;5.144;2023-04-24T02:39:05;99872.40;;;9.74
66403;BMP180;53212;52.112;5.144;2023-04-24T02:41:30;99872.60;;;9.70
66403;BMP180;53212;52.112;5.144;2023-04-24T02:44:00;99874.40;;;9.64
66403;BMP180;53212;52.112;5.144;2023-04-24T02:46:26;99870.80;;;9.60
66403;BMP180;53212;52.112;5.144;2023-04-24T02:48:52;99872.80;;;9.60
66403;BMP180;53212;52.112;5.144;2023-04-24T02:51:17;99876.00;;;9.50
66403;BMP180;53212;52.112;5.144;2023-04-24T02:53:43;99874.40;;;9.50
66403;BMP180;53212;52.112;5.144;2023-04-24T02:56:08;99873.80;;;9.50
66403;BMP180;53212;52.112;5.144;2023-04-24T02:58:33;99869.40;;;9.50
66403;BMP180;53212;52.112;5.144;2023-04-24T03:00:59;99869.00;;;9.50
66403;BMP180;53212;52.112;5.144;2023-04-24T03:03:25;99865.20;;;9.50
66403;BMP180;53212;52.112;5.144;2023-04-24T03:05:51;99869.40;;;9.50
66403;BMP180;53212;52.112;5.144;2023-04-24T03:08:17;99869.80;;;9.50
66403;BMP180;53212;52.112;5.144;2023-04-24T03:10:43;99868.60;;;9.60
66403;BMP180;53212;52.112;5.144;2023-04-24T03:13:08;99867.40;;;9.60
66403;BMP180;53212;52.112;5.144;2023-04-24T03:15:34;99863.20;;;9.54
66403;BMP180;53212;52.112;5.144;2023-04-24T03:17:59;99868.20;;;9.58
66403;BMP180;53212;52.112;5.144;2023-04-24T03:20:26;99871.60;;;9.60
66403;BMP180;53212;52.112;5.144;2023-04-24T03:22:51;99862.00;;;9.50
66403;BMP180;53212;52.112;5.144;2023-04-24T03:25:17;99860.40;;;9.50
66403;BMP180;53212;52.112;5.144;2023-04-24T03:27:42;99865.60;;;9.40
66403;BMP180;53212;52.112;5.144;2023-04-24T03:30:08;99864.40;;;9.38
66403;BMP180;53212;52.112;5.144;2023-04-24T03:32:34;99858.60;;;9.30
66403;BMP180;53212;52.112;5.144;2023-04-24T03:34:59;99862.40;;;9.30
66403;BMP180;53212;52.112;5.144;2023-04-24T03:37:26;99858.60;;;9.30
66403;BMP180;53212;52.112;5.144;2023-04-24T03:39:52;99859.00;;;9.40
66403;BMP180;53212;52.112;5.144;2023-04-24T03:42:17;99859.60;;;9.40
66403;BMP180;53212;52.112;5.144;2023-04-24T03:44:43;99860.60;;;9.40
66403;BMP180;53212;52.112;5.144;2023-04-24T03:47:08;99858.80;;;9.40
66403;BMP180;53212;52.112;5.144;2023-04-24T03:49:33;99856.20;;;9.40
66403;BMP180;53212;52.112;5.144;2023-04-24T03:51:59;99855.80;;;9.40
66403;BMP180;53212;52.112;5.144;2023-04-24T03:54:25;99856.00;;;9.40
66403;BMP180;53212;52.112;5.144;2023-04-24T03:56:51;99856.00;;;9.40
66403;BMP180;53212;52.112;5.144;2023-04-24T03:59:16;99859.80;;;9.34
66403;BMP180;53212;52.112;5.144;2023-04-24T04:01:41;99858.80;;;9.40
66403;BMP180;53212;52.112;5.144;2023-04-24T04:04:07;99863.20;;;9.40
66403;BMP180;53212;52.112;5.144;2023-04-24T04:06:33;99864.20;;;9.40
66403;BMP180;53212;52.112;5.144;2023-04-24T04:08:59;99859.20;;;9.40
66403;BMP180;53212;52.112;5.144;2023-04-24T04:11:25;99862.60;;;9.40
66403;BMP180;53212;52.112;5.144;2023-04-24T04:13:50;99868.00;;;9.40
66403;BMP180;53212;52.112;5.144;2023-04-24T04:16:16;99868.80;;;9.40
66403;BMP180;53212;52.112;5.144;2023-04-24T04:18:43;99875.00;;;9.44
66403;BMP180;53212;52.112;5.144;2023-04-24T04:21:09;99878.20;;;9.50
66403;BMP180;53212;52.112;5.144;2023-04-24T04:23:34;99879.80;;;9.50
66403;BMP180;53212;52.112;5.144;2023-04-24T04:26:00;99886.00;;;9.50
66403;BMP180;53212;52.112;5.144;2023-04-24T04:28:26;99885.20;;;9.60
66403;BMP180;53212;52.112;5.144;2023-04-24T04:30:52;99883.40;;;9.70
66403;BMP180;53212;52.112;5.144;2023-04-24T04:33:21;99887.00;;;9.70
66403;BMP180;53212;52.112;5.144;2023-04-24T04:35:46;99893.20;;;9.70
66403;BMP180;53212;52.112;5.144;2023-04-24T04:38:17;99890.60;;;9.60
66403;BMP180;53212;52.112;5.144;2023-04-24T04:40:44;99897.60;;;9.60
66403;BMP180;53212;52.112;5.144;2023-04-24T04:43:09;99902.20;;;9.52
66403;BMP180;53212;52.112;5.144;2023-04-24T04:45:37;99907.80;;;9.50
66403;BMP180;53212;52.112;5.144;2023-04-24T04:48:04;99908.20;;;9.50
66403;BMP180;53212;52.112;5.144;2023-04-24T04:50:33;99917.80;;;9.40
66403;BMP180;53212;52.112;5.144;2023-04-24T04:52:58;99916.80;;;9.40
66403;BMP180;53212;52.112;5.144;2023-04-24T04:55:24;99924.00;;;9.34
66403;BMP180;53212;52.112;5.144;2023-04-24T04:57:49;99921.60;;;9.30
66403;BMP180;53212;52.112;5.144;2023-04-24T05:00:15;99930.60;;;9.28
66403;BMP180;53212;52.112;5.144;2023-04-24T05:02:41;99932.80;;;9.20
66403;BMP180;53212;52.112;5.144;2023-04-24T05:05:07;99934.80;;;9.20
66403;BMP180;53212;52.112;5.144;2023-04-24T05:07:33;99937.80;;;9.20
66403;BMP180;53212;52.112;5.144;2023-04-24T05:09:58;99948.00;;;9.20
66403;BMP180;53212;52.112;5.144;2023-04-24T05:12:24;99951.80;;;9.20
66403;BMP180;53212;52.112;5.144;2023-04-24T05:14:49;99957.00;;;9.14
66403;BMP180;53212;52.112;5.144;2023-04-24T05:17:15;99965.60;;;9.10
66403;BMP180;53212;52.112;5.144;2023-04-24T05:19:40;99968.20;;;9.10
66403;BMP180;53212;52.112;5.144;2023-04-24T05:22:06;99971.40;;;9.00
66403;BMP180;53212;52.112;5.144;2023-04-24T05:24:35;99975.60;;;9.00
66403;BMP180;53212;52.112;5.144;2023-04-24T05:27:02;99983.40;;;9.00
66403;BMP180;53212;52.112;5.144;2023-04-24T05:29:30;99977.40;;;8.90
66403;BMP180;53212;52.112;5.144;2023-04-24T05:32:00;99994.00;;;8.80
66403;BMP180;53212;52.112;5.144;2023-04-24T05:34:26;99994.60;;;8.80
66403;BMP180;53212;52.112;5.144;2023-04-24T05:36:51;99999.00;;;8.70
66403;BMP180;53212;52.112;5.144;2023-04-24T05:39:17;99999.60;;;8.70
66403;BMP180;53212;52.112;5.144;2023-04-24T05:41:43;100000.40;;;8.60
66403;BMP180;53212;52.112;5.144;2023-04-24T05:44:09;100010.40;;;8.60
66403;BMP180;53212;52.112;5.144;2023-04-24T05:46:34;100014.20;;;8.60
66403;BMP180;53212;52.112;5.144;2023-04-24T05:49:00;100024.20;;;8.70
66403;BMP180;53212;52.112;5.144;2023-04-24T05:51:26;100021.80;;;8.70
66403;BMP180;53212;52.112;5.144;2023-04-24T05:53:51;100031.00;;;8.70
66403;BMP180;53212;52.112;5.144;2023-04-24T05:56:17;100035.60;;;8.70
66403;BMP180;53212;52.112;5.144;2023-04-24T05:58:43;100038.00;;;8.70
66403;BMP180;53212;52.112;5.144;2023-04-24T06:01:09;100042.80;;;8.70
66403;BMP180;53212;52.112;5.144;2023-04-24T06:03:34;100046.20;;;8.70
66403;BMP180;53212;52.112;5.144;2023-04-24T06:06:00;100054.00;;;8.70
66403;BMP180;53212;52.112;5.144;2023-04-24T06:08:25;100059.40;;;8.60
66403;BMP180;53212;52.112;5.144;2023-04-24T06:10:51;100060.80;;;8.68
66403;BMP180;53212;52.112;5.144;2023-04-24T06:13:17;100072.40;;;8.70
66403;BMP180;53212;52.112;5.144;2023-04-24T06:15:43;100079.60;;;8.70
66403;BMP180;53212;52.112;5.144;2023-04-24T06:18:09;100086.60;;;8.70
66403;BMP180;53212;52.112;5.144;2023-04-24T06:20:35;100094.60;;;8.80
66403;BMP180;53212;52.112;5.144;2023-04-24T06:23:01;100107.60;;;8.80
66403;BMP180;53212;52.112;5.144;2023-04-24T06:25:27;100115.20;;;8.80
66403;BMP180;53212;52.112;5.144;2023-04-24T06:27:55;100121.40;;;8.80
66403;BMP180;53212;52.112;5.144;2023-04-24T06:30:21;100128.60;;;8.70
66403;BMP180;53212;52.112;5.144;2023-04-24T06:32:46;100131.20;;;8.70
66403;BMP180;53212;52.112;5.144;2023-04-24T06:35:12;100142.20;;;8.60
66403;BMP180;53212;52.112;5.144;2023-04-24T06:37:39;100151.00;;;8.60
66403;BMP180;53212;52.112;5.144;2023-04-24T06:40:06;100164.20;;;8.58
66403;BMP180;53212;52.112;5.144;2023-04-24T06:42:32;100158.40;;;8.50
66403;BMP180;53212;52.112;5.144;2023-04-24T06:44:57;100171.00;;;8.50
66403;BMP180;53212;52.112;5.144;2023-04-24T06:47:23;100163.80;;;8.40
66403;BMP180;53212;52.112;5.144;2023-04-24T06:49:48;100180.40;;;8.48
66403;BMP180;53212;52.112;5.144;2023-04-24T06:52:16;100195.40;;;8.50
66403;BMP180;53212;52.112;5.144;2023-04-24T06:54:41;100195.20;;;8.50
66403;BMP180;53212;52.112;5.144;2023-04-24T06:57:08;100201.20;;;8.50
66403;BMP180;53212;52.112;5.144;2023-04-24T06:59:34;100208.40;;;8.42
66403;BMP180;53212;52.112;5.144;2023-04-24T07:01:59;100217.40;;;8.40
66403;BMP180;53212;52.112;5.144;2023-04-24T07:04:25;100214.00;;;8.40
66403;BMP180;53212;52.112;5.144;2023-04-24T07:06:51;100222.00;;;8.40
66403;BMP180;53212;52.112;5.144;2023-04-24T07:09:16;100221.80;;;8.40
66403;BMP180;53212;52.112;5.144;2023-04-24T07:11:44;100230.40;;;8.40
66403;BMP180;53212;52.112;5.144;2023-04-24T07:14:10;100234.20;;;8.40
66403;BMP180;53212;52.112;5.144;2023-04-24T07:16:36;100239.20;;;8.46
66403;BMP180;53212;52.112;5.144;2023-04-24T07:19:01;100250.80;;;8.40
66403;BMP180;53212;52.112;5.144;2023-04-24T07:21:26;100256.60;;;8.40
66403;BMP180;53212;52.112;5.144;2023-04-24T07:23:53;100258.40;;;8.40
66403;BMP180;53212;52.112;5.144;2023-04-24T07:26:19;100259.80;;;8.40
66403;BMP180;53212;52.112;5.144;2023-04-24T07:28:46;100267.00;;;8.40
66403;BMP180;53212;52.112;5.144;2023-04-24T07:31:11;100270.60;;;8.50
66403;BMP180;53212;52.112;5.144;2023-04-24T07:33:37;100280.00;;;8.50
66403;BMP180;53212;52.112;5.144;2023-04-24T07:36:04;100280.40;;;8.50
66403;BMP180;53212;52.112;5.144;2023-04-24T07:38:30;100279.60;;;8.58
66403;BMP180;53212;52.112;5.144;2023-04-24T07:40:56;100281.00;;;8.68
66403;BMP180;53212;52.112;5.144;2023-04-24T07:43:22;100291.40;;;8.70
66403;BMP180;53212;52.112;5.144;2023-04-24T07:45:51;100294.20;;;8.70
66403;BMP180;53212;52.112;5.144;2023-04-24T07:48:17;100305.20;;;8.70
66403;BMP180;53212;52.112;5.144;2023-04-24T07:50:44;100310.00;;;8.68
66403;BMP180;53212;52.112;5.144;2023-04-24T07:53:10;100316.60;;;8.60
66403;BMP180;53212;52.112;5.144;2023-04-24T07:55:35;100312.80;;;8.60
66403;BMP180;53212;52.112;5.144;2023-04-24T07:58:01;100320.60;;;8.60
66403;BMP180;53212;52.112;5.144;2023-04-24T08:00:26;100336.80;;;8.60
66403;BMP180;53212;52.112;5.144;2023-04-24T08:02:52;100339.20;;;8.60
66403;BMP180;53212;52.112;5.144;2023-04-24T08:05:17;100343.00;;;8.60
66403;BMP180;53212;52.112;5.144;2023-04-24T08:07:43;100344.20;;;8.60
66403;BMP180;53212;52.112;5.144;2023-04-24T08:10:10;100353.60;;;8.60
66403;BMP180;53212;52.112;5.144;2023-04-24T08:12:37;100362.00;;;8.70
66403;BMP180;53212;52.112;5.144;2023-04-24T08:15:03;100368.60;;;8.78
66403;BMP180;53212;52.112;5.144;2023-04-24T08:17:28;100366.00;;;8.90
66403;BMP180;53212;52.112;5.144;2023-04-24T08:19:54;100368.80;;;9.04
66403;BMP180;53212;52.112;5.144;2023-04-24T08:22:29;100386.80;;;9.10
66403;BMP180;53212;52.112;5.144;2023-04-24T08:24:55;100394.80;;;9.20
66403;BMP180;53212;52.112;5.144;2023-04-24T08:27:23;100397.00;;;9.20
66403;BMP180;53212;52.112;5.144;2023-04-24T08:29:49;100393.40;;;9.20
66403;BMP180;53212;52.112;5.144;2023-04-24T08:32:16;100400.20;;;9.30
66403;BMP180;53212;52.112;5.144;2023-04-24T08:34:42;100410.80;;;9.36
66403;BMP180;53212;52.112;5.144;2023-04-24T08:37:07;100417.60;;;9.34
66403;BMP180;53212;52.112;5.144;2023-04-24T08:39:33;100415.40;;;9.30
66403;BMP180;53212;52.112;5.144;2023-04-24T08:41:59;100419.60;;;9.30
66403;BMP180;53212;52.112;5.144;2023-04-24T08:44:32;100439.00;;;9.30
66403;BMP180;53212;52.112;5.144;2023-04-24T08:46:57;100424.20;;;9.40
66403;BMP180;53212;52.112;5.144;2023-04-24T08:49:24;100432.00;;;9.42
66403;BMP180;53212;52.112;5.144;2023-04-24T08:51:50;100434.60;;;9.52
66403;BMP180;53212;52.112;5.144;2023-04-24T08:54:16;100438.80;;;9.60
66403;BMP180;53212;52.112;5.144;2023-04-24T08:56:44;100449.00;;;9.78
66403;BMP180;53212;52.112;5.144;2023-04-24T08:59:10;100453.20;;;9.80
66403;BMP180;53212;52.112;5.144;2023-04-24T09:01:37;100456.80;;;9.90
66403;BMP180;53212;52.112;5.144;2023-04-24T09:04:03;100462.20;;;9.92
66403;BMP180;53212;52.112;5.144;2023-04-24T09:06:30;100464.20;;;9.78
66403;BMP180;53212;52.112;5.144;2023-04-24T09:09:00;100474.60;;;9.62
66403;BMP180;53212;52.112;5.144;2023-04-24T09:11:27;100474.40;;;9.60
66403;BMP180;53212;52.112;5.144;2023-04-24T09:13:54;100471.00;;;9.60
66403;BMP180;53212;52.112;5.144;2023-04-24T09:16:20;100470.80;;;9.66
66403;BMP180;53212;52.112;5.144;2023-04-24T09:18:46;100476.20;;;9.70
66403;BMP180;53212;52.112;5.144;2023-04-24T09:21:11;100480.80;;;9.90
66403;BMP180;53212;52.112;5.144;2023-04-24T09:23:38;100472.00;;;10.08
66403;BMP180;53212;52.112;5.144;2023-04-24T09:26:04;100475.00;;;10.10
66403;BMP180;53212;52.112;5.144;2023-04-24T09:28:37;100485.80;;;10.10
66403;BMP180;53212;52.112;5.144;2023-04-24T09:31:17;100485.20;;;10.06
66403;BMP180;53212;52.112;5.144;2023-04-24T09:34:00;100484.60;;;10.10
66403;BMP180;53212;52.112;5.144;2023-04-24T09:36:31;100497.60;;;10.10
66403;BMP180;53212;52.112;5.144;2023-04-24T09:39:04;100500.60;;;10.20
66403;BMP180;53212;52.112;5.144;2023-04-24T09:41:32;100503.00;;;10.30
66403;BMP180;53212;52.112;5.144;2023-04-24T09:44:17;100504.80;;;10.40
66403;BMP180;53212;52.112;5.144;2023-04-24T09:46:46;100507.60;;;10.70
66403;BMP180;53212;52.112;5.144;2023-04-24T09:49:16;100511.40;;;11.00
66403;BMP180;53212;52.112;5.144;2023-04-24T09:51:43;100515.40;;;11.10
66403;BMP180;53212;52.112;5.144;2023-04-24T09:54:20;100518.20;;;10.90
66403;BMP180;53212;52.112;5.144;2023-04-24T09:56:49;100530.40;;;10.80
66403;BMP180;53212;52.112;5.144;2023-04-24T09:59:18;100524.80;;;10.70
66403;BMP180;53212;52.112;5.144;2023-04-24T10:01:44;100546.40;;;10.70
66403;BMP180;53212;52.112;5.144;2023-04-24T10:04:21;100534.60;;;10.50
66403;BMP180;53212;52.112;5.144;2023-04-24T10:06:51;100546.60;;;10.24
66403;BMP180;53212;52.112;5.144;2023-04-24T10:09:19;100557.40;;;10.00
66403;BMP180;53212;52.112;5.144;2023-04-24T10:11:50;100565.20;;;9.90
66403;BMP180;53212;52.112;5.144;2023-04-24T10:14:18;100566.40;;;10.00
66403;BMP180;53212;52.112;5.144;2023-04-24T10:16:44;100567.20;;;10.10
66403;BMP180;53212;52.112;5.144;2023-04-24T10:19:13;100562.00;;;10.30
66403;BMP180;53212;52.112;5.144;2023-04-24T10:21:41;100570.60;;;10.50
66403;BMP180;53212;52.112;5.144;2023-04-24T10:24:09;100573.00;;;10.62
66403;BMP180;53212;52.112;5.144;2023-04-24T10:26:35;100563.00;;;10.80
66403;BMP180;53212;52.112;5.144;2023-04-24T10:29:01;100557.60;;;10.90
66403;BMP180;53212;52.112;5.144;2023-04-24T10:31:31;100573.00;;;11.10
66403;BMP180;53212;52.112;5.144;2023-04-24T10:33:58;100574.20;;;11.12
66403;BMP180;53212;52.112;5.144;2023-04-24T10:36:24;100579.60;;;11.26
66403;BMP180;53212;52.112;5.144;2023-04-24T10:38:52;100566.20;;;11.50
66403;BMP180;53212;52.112;5.144;2023-04-24T10:41:21;100581.40;;;11.60
66403;BMP180;53212;52.112;5.144;2023-04-24T10:44:05;100578.20;;;11.76
66403;BMP180;53212;52.112;5.144;2023-04-24T10:46:32;100575.40;;;11.88
66403;BMP180;53212;52.112;5.144;2023-04-24T10:48:57;100582.20;;;11.82
66403;BMP180;53212;52.112;5.144;2023-04-24T10:51:24;100583.80;;;12.10
66403;BMP180;53212;52.112;5.144;2023-04-24T10:53:51;100585.40;;;12.00
66403;BMP180;53212;52.112;5.144;2023-04-24T10:56:17;100587.80;;;11.86
66403;BMP180;53212;52.112;5.144;2023-04-24T10:58:44;100594.60;;;11.50
66403;BMP180;53212;52.112;5.144;2023-04-24T11:03:59;100606.80;;;10.80
66403;BMP180;53212;52.112;5.144;2023-04-24T11:06:43;100615.40;;;10.62
66403;BMP180;53212;52.112;5.144;2023-04-24T11:09:10;100637.40;;;10.30
66403;BMP180;53212;52.112;5.144;2023-04-24T11:11:45;100643.60;;;10.00
66403;BMP180;53212;52.112;5.144;2023-04-24T11:14:15;100643.80;;;10.00
66403;BMP180;53212;52.112;5.144;2023-04-24T11:16:54;100637.20;;;9.80
66403;BMP180;53212;52.112;5.144;2023-04-24T11:19:26;100637.40;;;9.92
66403;BMP180;53212;52.112;5.144;2023-04-24T11:22:03;100644.20;;;10.20
66403;BMP180;53212;52.112;5.144;2023-04-24T11:24:48;100647.20;;;10.44
66403;BMP180;53212;52.112;5.144;2023-04-24T11:27:17;100639.40;;;10.50
66403;BMP180;53212;52.112;5.144;2023-04-24T11:32:30;100648.20;;;10.80
66403;BMP180;53212;52.112;5.144;2023-04-24T11:40:06;100656.80;;;11.44
66403;BMP180;53212;52.112;5.144;2023-04-24T11:42:36;100664.00;;;11.70
66403;BMP180;53212;52.112;5.144;2023-04-24T11:45:08;100658.20;;;11.82
66403;BMP180;53212;52.112;5.144;2023-04-24T11:47:34;100662.40;;;11.98
66403;BMP180;53212;52.112;5.144;2023-04-24T11:50:01;100652.00;;;12.14
66403;BMP180;53212;52.112;5.144;2023-04-24T11:52:27;100664.40;;;12.30
66403;BMP180;53212;52.112;5.144;2023-04-24T11:54:53;100662.80;;;12.34
66403;BMP180;53212;52.112;5.144;2023-04-24T11:57:20;100673.00;;;12.20
66403;BMP180;53212;52.112;5.144;2023-04-24T11:59:47;100676.00;;;12.00
66403;BMP180;53212;52.112;5.144;2023-04-24T12:02:26;100684.20;;;11.80
66403;BMP180;53212;52.112;5.144;2023-04-24T12:04:55;100679.60;;;11.62
66403;BMP180;53212;52.112;5.144;2023-04-24T12:07:22;100685.00;;;11.60
66403;BMP180;53212;52.112;5.144;2023-04-24T12:09:55;100690.80;;;11.84
66403;BMP180;53212;52.112;5.144;2023-04-24T12:12:27;100694.00;;;11.96
66403;BMP180;53212;52.112;5.144;2023-04-24T12:14:56;100697.20;;;12.00
66403;BMP180;53212;52.112;5.144;2023-04-24T12:17:29;100683.80;;;12.10
66403;BMP180;53212;52.112;5.144;2023-04-24T12:20:07;100681.20;;;12.10
66403;BMP180;53212;52.112;5.144;2023-04-24T12:22:52;100714.20;;;12.20
66403;BMP180;53212;52.112;5.144;2023-04-24T12:25:24;100700.00;;;12.06
66403;BMP180;53212;52.112;5.144;2023-04-24T12:27:57;100709.20;;;11.74
66403;BMP180;53212;52.112;5.144;2023-04-24T12:30:43;100710.40;;;11.60
66403;BMP180;53212;52.112;5.144;2023-04-24T12:33:10;100714.60;;;11.60
66403;BMP180;53212;52.112;5.144;2023-04-24T12:35:36;100727.20;;;11.50
66403;BMP180;53212;52.112;5.144;2023-04-24T12:38:15;100729.00;;;11.38
66403;BMP180;53212;52.112;5.144;2023-04-24T12:40:42;100732.20;;;11.20
66403;BMP180;53212;52.112;5.144;2023-04-24T12:43:16;100735.80;;;11.08
66403;BMP180;53212;52.112;5.144;2023-04-24T12:45:41;100733.80;;;10.98
66403;BMP180;53212;52.112;5.144;2023-04-24T12:48:07;100748.80;;;11.00
66403;BMP180;53212;52.112;5.144;2023-04-24T12:50:32;100741.60;;;10.90
66403;BMP180;53212;52.112;5.144;2023-04-24T12:52:58;100747.00;;;10.70
66403;BMP180;53212;52.112;5.144;2023-04-24T12:55:23;100756.40;;;10.40
66403;BMP180;53212;52.112;5.144;2023-04-24T12:57:49;100769.20;;;10.40
66403;BMP180;53212;52.112;5.144;2023-04-24T13:00:15;100758.00;;;10.34
66403;BMP180;53212;52.112;5.144;2023-04-24T13:02:40;100761.80;;;10.50
66403;BMP180;53212;52.112;5.144;2023-04-24T13:05:06;100768.80;;;10.56
66403;BMP180;53212;52.112;5.144;2023-04-24T13:07:33;100757.40;;;10.60
66403;BMP180;53212;52.112;5.144;2023-04-24T13:09:58;100762.60;;;10.78
66403;BMP180;53212;52.112;5.144;2023-04-24T13:12:24;100757.20;;;11.12
66403;BMP180;53212;52.112;5.144;2023-04-24T13:14:51;100758.40;;;11.60
66403;BMP180;53212;52.112;5.144;2023-04-24T13:17:16;100758.60;;;11.56
66403;BMP180;53212;52.112;5.144;2023-04-24T13:19:43;100756.40;;;11.30
66403;BMP180;53212;52.112;5.144;2023-04-24T13:22:10;100759.80;;;11.14
66403;BMP180;53212;52.112;5.144;2023-04-24T13:24:37;100761.80;;;11.26
66403;BMP180;53212;52.112;5.144;2023-04-24T13:27:03;100769.40;;;11.50
66403;BMP180;53212;52.112;5.144;2023-04-24T13:29:29;100770.60;;;11.78
66403;BMP180;53212;52.112;5.144;2023-04-24T13:31:55;100765.40;;;12.16
66403;BMP180;53212;52.112;5.144;2023-04-24T13:34:21;100767.20;;;12.46
66403;BMP180;53212;52.112;5.144;2023-04-24T13:36:47;100754.80;;;12.30
66403;BMP180;53212;52.112;5.144;2023-04-24T13:39:12;100771.00;;;12.10
66403;BMP180;53212;52.112;5.144;2023-04-24T13:41:39;100785.00;;;12.10
66403;BMP180;53212;52.112;5.144;2023-04-24T13:44:05;100790.40;;;12.32
66403;BMP180;53212;52.112;5.144;2023-04-24T13:46:31;100788.20;;;12.32
66403;BMP180;53212;52.112;5.144;2023-04-24T13:48:57;100782.80;;;12.20
66403;BMP180;53212;52.112;5.144;2023-04-24T13:51:25;100786.40;;;12.00
66403;BMP180;53212;52.112;5.144;2023-04-24T13:53:53;100796.20;;;11.80
66403;BMP180;53212;52.112;5.144;2023-04-24T13:56:18;100789.00;;;11.90
66403;BMP180;53212;52.112;5.144;2023-04-24T13:58:44;100776.60;;;11.98
66403;BMP180;53212;52.112;5.144;2023-04-24T14:01:09;100781.80;;;12.00
66403;BMP180;53212;52.112;5.144;2023-04-24T14:03:37;100787.60;;;11.80
66403;BMP180;53212;52.112;5.144;2023-04-24T14:06:02;100786.20;;;11.70
66403;BMP180;53212;52.112;5.144;2023-04-24T14:08:28;100798.20;;;11.80
66403;BMP180;53212;52.112;5.144;2023-04-24T14:10:53;100789.80;;;11.80
66403;BMP180;53212;52.112;5.144;2023-04-24T14:13:19;100800.60;;;11.88
66403;BMP180;53212;52.112;5.144;2023-04-24T14:15:45;100794.00;;;11.92
66403;BMP180;53212;52.112;5.144;2023-04-24T14:18:10;100803.20;;;11.78